createdAt,value
2019-01-23T00:00:05.376Z,18
2019-01-23T00:01:05.452Z,18
2019-01-23T00:02:06.037Z,18
2019-01-23T00:03:05.754Z,18
2019-01-23T00:04:05.742Z,18
2019-01-23T00:05:05.767Z,18
2019-01-23T00:06:05.682Z,18
2019-01-23T00:07:05.464Z,18
2019-01-23T00:08:05.237Z,18
2019-01-23T00:09:05.692Z,18
2019-01-23T00:10:05.260Z,18
2019-01-23T00:11:06.132Z,18
2019-01-23T00:12:05.928Z,18
2019-01-23T00:13:05.731Z,18
2019-01-23T00:14:05.857Z,18
2019-01-23T00:15:05.630Z,18
2019-01-23T00:16:05.766Z,18
2019-01-23T00:17:05.602Z,18
2019-01-23T00:18:05.877Z,18
2019-01-23T00:19:05.369Z,18
2019-01-23T00:20:06.333Z,17.75
2019-01-23T00:21:05.739Z,18
2019-01-23T00:22:05.670Z,17.75
2019-01-23T00:23:05.902Z,17.75
2019-01-23T00:24:05.427Z,17.75
2019-01-23T00:25:05.502Z,17.75
2019-01-23T00:26:05.303Z,17.75
2019-01-23T00:27:07.291Z,17.75
2019-01-23T00:28:06.083Z,17.75
2019-01-23T00:29:05.538Z,17.75
2019-01-23T00:30:08.324Z,17.75
2019-01-23T00:31:05.771Z,17.75
2019-01-23T00:32:05.739Z,17.75
2019-01-23T00:33:05.353Z,17.75
2019-01-23T00:34:05.343Z,17.75
2019-01-23T00:35:05.891Z,17.75
2019-01-23T00:36:05.947Z,17.75
2019-01-23T00:37:05.670Z,17.75
2019-01-23T00:38:05.986Z,17.75
2019-01-23T00:39:05.365Z,17.75
2019-01-23T00:40:05.591Z,17.75
2019-01-23T00:41:05.946Z,17.75
2019-01-23T00:42:05.364Z,17.75
2019-01-23T00:43:05.275Z,17.75
2019-01-23T00:44:05.851Z,17.75
2019-01-23T00:45:05.665Z,17.75
2019-01-23T00:46:05.688Z,17.75
2019-01-23T00:47:05.881Z,17.75
2019-01-23T00:48:05.648Z,17.75
2019-01-23T00:49:05.397Z,17.75
2019-01-23T00:50:05.701Z,17.75
2019-01-23T00:51:05.398Z,17.75
2019-01-23T00:52:05.493Z,17.75
2019-01-23T00:53:05.342Z,17.75
2019-01-23T00:54:05.659Z,17.75
2019-01-23T00:55:05.598Z,17.75
2019-01-23T00:56:05.832Z,17.75
2019-01-23T00:57:07.863Z,17.75
2019-01-23T00:58:05.553Z,17.75
2019-01-23T00:59:05.489Z,17.75
2019-01-23T01:00:05.323Z,17.75
2019-01-23T01:01:05.489Z,17.75
2019-01-23T01:02:05.498Z,17.75
2019-01-23T01:03:05.698Z,17.75
2019-01-23T01:04:05.386Z,17.75
2019-01-23T01:05:05.969Z,17.75
2019-01-23T01:06:05.362Z,17.75
2019-01-23T01:07:05.739Z,17.75
2019-01-23T01:08:05.819Z,17.75
2019-01-23T01:09:05.299Z,17.75
2019-01-23T01:10:05.703Z,17.75
2019-01-23T01:11:05.715Z,17.75
2019-01-23T01:12:05.693Z,17.75
2019-01-23T01:13:05.598Z,17.75
2019-01-23T01:14:05.941Z,17.75
2019-01-23T01:15:05.368Z,17.75
2019-01-23T01:16:05.498Z,17.75
2019-01-23T01:17:06.264Z,17.75
2019-01-23T01:18:05.401Z,17.75
2019-01-23T01:19:05.781Z,17.5
2019-01-23T01:20:05.497Z,17.5
2019-01-23T01:21:05.688Z,17.5
2019-01-23T01:22:07.326Z,17.5
2019-01-23T01:24:05.700Z,17.5
2019-01-23T01:25:06.121Z,17.5
2019-01-23T01:26:05.877Z,17.5
2019-01-23T01:27:05.728Z,17.5
2019-01-23T01:28:05.759Z,17.5
2019-01-23T01:29:05.844Z,17.5
2019-01-23T01:30:05.726Z,17.5
2019-01-23T01:31:05.300Z,17.5
2019-01-23T01:32:05.789Z,17.5
2019-01-23T01:33:05.752Z,17.5
2019-01-23T01:34:05.382Z,17.5
2019-01-23T01:35:05.587Z,17.5
2019-01-23T01:36:05.341Z,17.5
2019-01-23T01:37:05.428Z,17.5
2019-01-23T01:38:05.176Z,17.5
2019-01-23T01:39:05.821Z,17.5
2019-01-23T01:40:05.712Z,17.5
2019-01-23T01:41:05.923Z,17.5
2019-01-23T01:42:05.714Z,17.5
2019-01-23T01:43:05.862Z,17.5
2019-01-23T01:44:05.648Z,17.5
2019-01-23T01:45:05.756Z,17.5
2019-01-23T01:46:05.602Z,17.5
2019-01-23T01:47:05.394Z,17.5
2019-01-23T01:48:05.797Z,17.5
2019-01-23T01:49:05.696Z,17.5
2019-01-23T01:50:05.387Z,17.5
2019-01-23T01:51:05.696Z,17.5
2019-01-23T01:52:05.695Z,17.5
2019-01-23T01:53:05.727Z,17.5
2019-01-23T01:54:05.386Z,17.5
2019-01-23T01:55:05.666Z,17.5
2019-01-23T01:56:05.502Z,17.5
2019-01-23T01:57:05.891Z,17.5
2019-01-23T01:58:10.468Z,17.5
2019-01-23T01:59:05.785Z,17.5
2019-01-23T02:00:05.855Z,17.5
2019-01-23T02:01:05.378Z,17.5
2019-01-23T02:02:05.790Z,17.5
2019-01-23T02:03:05.725Z,17.5
2019-01-23T02:04:05.819Z,17.5
2019-01-23T02:05:05.728Z,17.5
2019-01-23T02:06:05.663Z,17.5
2019-01-23T02:07:05.838Z,17.5
2019-01-23T02:08:06.325Z,17.5
2019-01-23T02:09:06.106Z,17.5
2019-01-23T02:10:06.969Z,17.5
2019-01-23T02:11:05.488Z,17.5
2019-01-23T02:12:05.976Z,17.5
2019-01-23T02:13:07.009Z,17.5
2019-01-23T02:14:05.789Z,17.5
2019-01-23T02:15:05.594Z,17.5
2019-01-23T02:16:06.962Z,17.5
2019-01-23T02:17:06.240Z,17.5
2019-01-23T02:18:05.974Z,17.5
2019-01-23T02:19:06.975Z,17.5
2019-01-23T02:20:07.328Z,17.25
2019-01-23T02:21:05.539Z,17.25
2019-01-23T02:22:05.780Z,17.25
2019-01-23T02:23:05.668Z,17.5
2019-01-23T02:24:05.719Z,17.25
2019-01-23T02:25:05.343Z,17.25
2019-01-23T02:26:05.759Z,17.25
2019-01-23T02:27:07.477Z,17.25
2019-01-23T02:28:05.417Z,17.25
2019-01-23T02:29:09.979Z,17.25
2019-01-23T02:30:05.642Z,17.25
2019-01-23T02:31:05.597Z,17.25
2019-01-23T02:32:05.926Z,17.25
2019-01-23T02:33:05.836Z,17.25
2019-01-23T02:34:05.363Z,17.25
2019-01-23T02:35:05.400Z,17.25
2019-01-23T02:36:05.724Z,17.25
2019-01-23T02:37:05.750Z,17.25
2019-01-23T02:38:05.455Z,17.25
2019-01-23T02:39:06.409Z,17.25
2019-01-23T02:40:05.329Z,17.25
2019-01-23T02:41:05.494Z,17.25
2019-01-23T02:42:06.231Z,17.25
2019-01-23T02:43:05.686Z,17.25
2019-01-23T02:44:06.020Z,17.25
2019-01-23T02:46:05.696Z,17.25
2019-01-23T02:47:05.822Z,17.25
2019-01-23T02:48:06.035Z,17.25
2019-01-23T02:49:05.739Z,17.25
2019-01-23T02:50:05.758Z,17.25
2019-01-23T02:51:05.748Z,17.25
2019-01-23T02:52:05.381Z,17.25
2019-01-23T02:53:05.654Z,17.25
2019-01-23T02:54:05.602Z,17.25
2019-01-23T02:55:05.793Z,17.25
2019-01-23T02:56:05.631Z,17.25
2019-01-23T02:57:05.919Z,17.25
2019-01-23T02:58:05.430Z,17.25
2019-01-23T02:59:05.479Z,17.25
2019-01-23T03:00:05.841Z,17.25
2019-01-23T03:01:05.715Z,17.25
2019-01-23T03:02:06.940Z,17.25
2019-01-23T03:03:05.938Z,17.25
2019-01-23T03:04:05.700Z,17.25
2019-01-23T03:05:05.723Z,17.25
2019-01-23T03:06:05.713Z,17.25
2019-01-23T03:07:07.281Z,17.25
2019-01-23T03:08:05.981Z,17.25
2019-01-23T03:09:05.802Z,17.25
2019-01-23T03:10:05.695Z,17.25
2019-01-23T03:11:07.355Z,17.25
2019-01-23T03:12:06.404Z,17.25
2019-01-23T03:13:05.710Z,17.25
2019-01-23T03:14:05.800Z,17.25
2019-01-23T03:15:05.617Z,17.25
2019-01-23T03:16:05.789Z,17.25
2019-01-23T03:17:05.851Z,17.25
2019-01-23T03:18:05.590Z,17.25
2019-01-23T03:19:05.752Z,17.25
2019-01-23T03:20:05.769Z,17.25
2019-01-23T03:21:05.281Z,17.25
2019-01-23T03:22:05.693Z,17.25
2019-01-23T03:23:05.529Z,17.25
2019-01-23T03:24:05.349Z,17.25
2019-01-23T03:25:05.660Z,17.25
2019-01-23T03:26:05.400Z,17.25
2019-01-23T03:27:05.360Z,17.25
2019-01-23T03:28:05.395Z,17.25
2019-01-23T03:29:05.456Z,17
2019-01-23T03:30:05.966Z,17
2019-01-23T03:31:05.749Z,17
2019-01-23T03:32:05.500Z,17
2019-01-23T03:33:05.613Z,17
2019-01-23T03:34:05.360Z,17
2019-01-23T03:35:06.099Z,17
2019-01-23T03:36:05.594Z,17
2019-01-23T03:37:05.765Z,17
2019-01-23T03:38:05.712Z,17
2019-01-23T03:39:05.806Z,17
2019-01-23T03:40:05.580Z,17
2019-01-23T03:41:05.700Z,17
2019-01-23T03:42:05.457Z,17
2019-01-23T03:43:05.753Z,17
2019-01-23T03:44:05.640Z,17
2019-01-23T03:45:05.554Z,17
2019-01-23T03:46:05.454Z,17
2019-01-23T03:47:05.652Z,17
2019-01-23T03:48:05.517Z,17
2019-01-23T03:49:05.354Z,17
2019-01-23T03:50:05.453Z,17
2019-01-23T03:51:05.710Z,17
2019-01-23T03:52:05.351Z,17
2019-01-23T03:53:06.030Z,17
2019-01-23T03:54:05.532Z,17
2019-01-23T03:55:05.531Z,17
2019-01-23T03:56:05.443Z,17
2019-01-23T03:57:06.050Z,17
2019-01-23T03:58:05.394Z,17
2019-01-23T03:59:05.446Z,17
2019-01-23T04:00:05.561Z,17
2019-01-23T04:01:05.303Z,17
2019-01-23T04:02:06.064Z,17
2019-01-23T04:03:05.887Z,17
2019-01-23T04:04:05.355Z,17
2019-01-23T04:05:07.256Z,17
2019-01-23T04:06:06.205Z,17
2019-01-23T04:07:10.992Z,17
2019-01-23T04:08:05.909Z,17
2019-01-23T04:09:05.804Z,17
2019-01-23T04:10:07.215Z,17
2019-01-23T04:11:07.262Z,17
2019-01-23T04:12:05.548Z,17
2019-01-23T04:13:05.952Z,17
2019-01-23T04:14:05.261Z,17
2019-01-23T04:15:05.743Z,17
2019-01-23T04:16:05.754Z,17
2019-01-23T04:17:06.060Z,17
2019-01-23T04:18:05.965Z,17
2019-01-23T04:19:05.608Z,17
2019-01-23T04:20:05.348Z,17
2019-01-23T04:21:05.790Z,17
2019-01-23T04:22:05.550Z,17
2019-01-23T04:23:05.686Z,17
2019-01-23T04:24:05.506Z,17
2019-01-23T04:25:05.781Z,17
2019-01-23T04:26:05.455Z,17
2019-01-23T04:27:07.185Z,17
2019-01-23T04:28:05.346Z,17
2019-01-23T04:29:05.613Z,17
2019-01-23T04:30:05.561Z,17
2019-01-23T04:31:05.353Z,17
2019-01-23T04:32:05.479Z,17
2019-01-23T04:33:06.202Z,17
2019-01-23T04:34:05.371Z,17
2019-01-23T04:35:05.420Z,17
2019-01-23T04:36:06.189Z,17
2019-01-23T04:37:05.283Z,17
2019-01-23T04:38:05.696Z,17
2019-01-23T04:39:05.537Z,17
2019-01-23T04:40:05.599Z,17
2019-01-23T04:41:05.391Z,17
2019-01-23T04:42:05.442Z,17
2019-01-23T04:43:05.280Z,17
2019-01-23T04:44:07.888Z,17
2019-01-23T04:45:05.464Z,17
2019-01-23T04:46:05.364Z,17
2019-01-23T04:47:05.226Z,17
2019-01-23T04:48:05.560Z,17
2019-01-23T04:49:05.374Z,17
2019-01-23T04:50:05.260Z,17
2019-01-23T04:51:05.369Z,17
2019-01-23T04:52:05.230Z,17
2019-01-23T04:53:05.455Z,17
2019-01-23T04:54:06.499Z,17
2019-01-23T04:55:05.339Z,17
2019-01-23T04:56:05.321Z,17
2019-01-23T04:57:05.450Z,17
2019-01-23T04:58:05.410Z,17
2019-01-23T04:59:05.520Z,17
2019-01-23T05:00:05.889Z,17
2019-01-23T05:01:05.506Z,17
2019-01-23T05:02:05.658Z,17
2019-01-23T05:03:05.522Z,17
2019-01-23T05:04:05.258Z,17
2019-01-23T05:05:05.611Z,17
2019-01-23T05:06:05.784Z,17
2019-01-23T05:07:05.515Z,17
2019-01-23T05:08:05.555Z,17
2019-01-23T05:10:05.239Z,17.25
2019-01-23T05:11:05.613Z,17.25
2019-01-23T05:12:05.698Z,17.25
2019-01-23T05:13:05.228Z,17.25
2019-01-23T05:14:05.551Z,17.25
2019-01-23T05:15:05.901Z,17.25
2019-01-23T05:16:05.410Z,17.25
2019-01-23T05:17:05.386Z,17.25
2019-01-23T05:18:05.482Z,17.25
2019-01-23T05:19:05.235Z,17.25
2019-01-23T05:20:05.384Z,17.25
2019-01-23T05:21:05.718Z,17.25
2019-01-23T05:22:05.312Z,17.25
2019-01-23T05:23:05.418Z,17.25
2019-01-23T05:24:05.474Z,17.25
2019-01-23T05:25:08.670Z,17.25
2019-01-23T05:26:05.289Z,17.25
2019-01-23T05:27:05.754Z,17.25
2019-01-23T05:28:05.651Z,17.25
2019-01-23T05:29:05.678Z,17.25
2019-01-23T05:30:05.866Z,17.25
2019-01-23T05:31:05.423Z,17.25
2019-01-23T05:32:05.423Z,17.5
2019-01-23T05:33:05.757Z,17.5
2019-01-23T05:34:05.455Z,17.5
2019-01-23T05:35:05.272Z,17.5
2019-01-23T05:36:05.406Z,17.5
2019-01-23T05:37:05.541Z,17.5
2019-01-23T05:38:05.370Z,17.5
2019-01-23T05:39:05.995Z,17.5
2019-01-23T05:40:05.460Z,17.5
2019-01-23T05:41:07.232Z,17.5
2019-01-23T05:42:05.940Z,17.5
2019-01-23T05:43:05.844Z,17.5
2019-01-23T05:44:05.178Z,17.5
2019-01-23T05:45:05.445Z,17.5
2019-01-23T05:46:05.911Z,17.5
2019-01-23T05:47:05.765Z,17.5
2019-01-23T05:48:05.466Z,17.75
2019-01-23T05:49:05.291Z,17.75
2019-01-23T05:50:05.506Z,17.75
2019-01-23T05:51:05.414Z,17.75
2019-01-23T05:52:05.405Z,17.75
2019-01-23T05:53:05.407Z,17.75
2019-01-23T05:54:05.735Z,17.75
2019-01-23T05:55:05.477Z,17.75
2019-01-23T05:56:05.749Z,17.75
2019-01-23T05:57:05.851Z,17.75
2019-01-23T05:58:05.805Z,17.75
2019-01-23T05:59:05.210Z,17.75
2019-01-23T06:00:05.311Z,17.75
2019-01-23T06:01:06.388Z,17.75
2019-01-23T06:02:05.251Z,17.75
2019-01-23T06:03:05.419Z,17.75
2019-01-23T06:04:05.477Z,17.75
2019-01-23T06:05:05.788Z,18
2019-01-23T06:06:05.659Z,18
2019-01-23T06:07:05.574Z,18
2019-01-23T06:08:05.419Z,18
2019-01-23T06:09:05.748Z,18
2019-01-23T06:10:05.689Z,18
2019-01-23T06:11:05.160Z,18
2019-01-23T06:12:07.237Z,18
2019-01-23T06:13:06.064Z,18
2019-01-23T06:14:05.833Z,18
2019-01-23T06:15:06.591Z,18
2019-01-23T06:16:05.414Z,18
2019-01-23T06:17:05.901Z,18
2019-01-23T06:18:05.822Z,18
2019-01-23T06:19:05.789Z,18
2019-01-23T06:20:05.981Z,18
2019-01-23T06:21:05.906Z,18
2019-01-23T06:22:05.270Z,18
2019-01-23T06:23:05.417Z,18
2019-01-23T06:24:05.393Z,18
2019-01-23T06:25:05.991Z,18
2019-01-23T06:26:05.731Z,18
2019-01-23T06:27:05.472Z,18
2019-01-23T06:28:05.778Z,18.25
2019-01-23T06:29:05.605Z,18.25
2019-01-23T06:30:10.757Z,18.25
2019-01-23T06:31:05.333Z,18.25
2019-01-23T06:32:05.804Z,18.25
2019-01-23T06:33:05.685Z,18.25
2019-01-23T06:34:05.480Z,18.25
2019-01-23T06:35:05.354Z,18.25
2019-01-23T06:36:05.666Z,18.25
2019-01-23T06:37:05.157Z,18.25
2019-01-23T06:38:05.762Z,18.25
2019-01-23T06:39:05.310Z,18.25
2019-01-23T06:40:05.401Z,18.25
2019-01-23T06:41:05.633Z,18.25
2019-01-23T06:42:05.680Z,18.25
2019-01-23T06:43:05.893Z,18.25
2019-01-23T06:44:05.241Z,18.25
2019-01-23T06:45:05.478Z,18.25
2019-01-23T06:46:05.380Z,18.25
2019-01-23T06:47:05.473Z,18.25
2019-01-23T06:48:05.412Z,18.25
2019-01-23T06:49:05.803Z,18.25
2019-01-23T06:50:05.555Z,18.25
2019-01-23T06:51:05.421Z,18.25
2019-01-23T06:52:05.458Z,18.25
2019-01-23T06:53:06.112Z,18.25
2019-01-23T06:54:05.560Z,18.25
2019-01-23T06:55:05.854Z,18.25
2019-01-23T06:56:05.425Z,18.25
2019-01-23T06:57:05.791Z,18.25
2019-01-23T06:58:05.681Z,18.25
2019-01-23T06:59:05.475Z,18.25
2019-01-23T07:00:05.425Z,18.5
2019-01-23T07:01:05.603Z,18.5
2019-01-23T07:02:05.444Z,18.5
2019-01-23T07:03:05.441Z,18.5
2019-01-23T07:04:05.358Z,18.5
2019-01-23T07:05:05.530Z,18.5
2019-01-23T07:06:05.561Z,18.5
2019-01-23T07:07:06.760Z,18.5
2019-01-23T07:08:15.606Z,18.5
2019-01-23T07:09:15.556Z,18.5
2019-01-23T07:10:15.544Z,18.75
2019-01-23T07:11:15.416Z,18.75
2019-01-23T07:12:15.586Z,19
2019-01-23T07:13:15.378Z,19
2019-01-23T07:14:15.647Z,19
2019-01-23T07:15:15.178Z,19
2019-01-23T07:16:15.323Z,19
2019-01-23T07:17:15.338Z,19
2019-01-23T07:18:15.692Z,19
2019-01-23T07:19:15.344Z,19
2019-01-23T07:20:15.608Z,19
2019-01-23T07:21:15.798Z,19
2019-01-23T07:22:15.246Z,19
2019-01-23T07:23:15.599Z,19
2019-01-23T07:24:15.721Z,19
2019-01-23T07:25:15.724Z,19
2019-01-23T07:26:15.735Z,19
2019-01-23T07:27:15.393Z,19
2019-01-23T07:28:15.560Z,19
2019-01-23T07:29:15.438Z,19
2019-01-23T07:30:15.489Z,19
2019-01-23T07:31:17.124Z,19.25
2019-01-23T07:32:15.707Z,19.25
2019-01-23T07:33:15.677Z,19.25
2019-01-23T07:34:15.951Z,19.25
2019-01-23T07:35:15.708Z,19.25
2019-01-23T07:36:15.928Z,19.25
2019-01-23T07:37:15.815Z,19.25
2019-01-23T07:38:15.456Z,19.25
2019-01-23T07:39:15.694Z,19.25
2019-01-23T07:40:15.749Z,19.25
2019-01-23T07:41:15.388Z,19.25
2019-01-23T07:42:15.564Z,19.25
2019-01-23T07:43:15.827Z,19.25
2019-01-23T07:44:15.663Z,19.25
2019-01-23T07:45:15.704Z,19.25
2019-01-23T07:46:15.425Z,19.25
2019-01-23T07:47:15.595Z,19.25
2019-01-23T07:48:17.193Z,19.25
2019-01-23T07:49:15.406Z,19.25
2019-01-23T07:50:15.721Z,19.25
2019-01-23T07:51:15.294Z,19.25
2019-01-23T07:52:15.697Z,19.25
2019-01-23T07:53:15.386Z,19.25
2019-01-23T07:54:16.329Z,19.25
2019-01-23T07:55:15.444Z,19.25
2019-01-23T07:56:15.292Z,19.25
2019-01-23T07:57:15.293Z,19.25
2019-01-23T07:58:15.880Z,19.25
2019-01-23T07:59:15.191Z,19.25
2019-01-23T08:00:15.910Z,19.25
2019-01-23T08:01:15.450Z,19.25
2019-01-23T08:02:15.821Z,19.25
2019-01-23T08:03:15.328Z,19.25
2019-01-23T08:04:17.028Z,19.25
2019-01-23T08:05:19.961Z,19.25
2019-01-23T08:06:15.522Z,19.25
2019-01-23T08:07:15.494Z,19.25
2019-01-23T08:08:15.519Z,19.25
2019-01-23T08:09:15.657Z,19.5
2019-01-23T08:10:15.963Z,19.5
2019-01-23T08:11:15.677Z,19.5
2019-01-23T08:12:15.834Z,19.5
2019-01-23T08:13:15.722Z,19.5
2019-01-23T08:14:15.267Z,19.5
2019-01-23T08:15:15.580Z,19.5
2019-01-23T08:16:15.360Z,19.5
2019-01-23T08:17:15.561Z,19.5
2019-01-23T08:18:15.919Z,19.5
2019-01-23T08:19:15.413Z,19.5
2019-01-23T08:20:15.355Z,19.5
2019-01-23T08:21:15.856Z,19.5
2019-01-23T08:22:15.435Z,19.5
2019-01-23T08:23:15.700Z,19.5
2019-01-23T08:24:15.365Z,19.5
2019-01-23T08:25:15.663Z,19.5
2019-01-23T08:26:15.628Z,19.5
2019-01-23T08:27:15.459Z,19.5
2019-01-23T08:28:15.188Z,19.75
2019-01-23T08:29:15.283Z,19.75
2019-01-23T08:30:15.508Z,19.75
2019-01-23T08:31:15.293Z,19.75
2019-01-23T08:32:15.526Z,19.75
2019-01-23T08:33:15.618Z,19.75
2019-01-23T08:34:15.764Z,19.75
2019-01-23T08:35:15.740Z,19.75
2019-01-23T08:36:17.259Z,19.75
2019-01-23T08:37:16.648Z,19.75
2019-01-23T08:38:15.335Z,19.75
2019-01-23T08:39:15.321Z,19.75
2019-01-23T08:40:15.689Z,19.75
2019-01-23T08:41:15.284Z,19.75
2019-01-23T08:42:15.784Z,19.75
2019-01-23T08:43:15.728Z,19.75
2019-01-23T08:44:15.483Z,19.75
2019-01-23T08:45:15.420Z,19.75
2019-01-23T08:46:15.597Z,19.75
2019-01-23T08:47:15.295Z,19.75
2019-01-23T08:48:15.317Z,19.75
2019-01-23T08:49:15.635Z,19.75
2019-01-23T08:50:15.263Z,19.75
2019-01-23T08:51:15.423Z,19.75
2019-01-23T08:52:15.659Z,19.75
2019-01-23T08:53:15.423Z,20
2019-01-23T08:54:15.449Z,20
2019-01-23T08:55:15.359Z,20
2019-01-23T08:56:15.681Z,20
2019-01-23T08:57:15.369Z,20
2019-01-23T08:58:15.438Z,20
2019-01-23T08:59:15.364Z,20
2019-01-23T09:00:15.323Z,20
2019-01-23T09:01:15.735Z,20
2019-01-23T09:02:15.166Z,20
2019-01-23T09:03:15.284Z,20
2019-01-23T09:04:15.332Z,20
2019-01-23T09:05:15.754Z,20
2019-01-23T09:06:15.653Z,20
2019-01-23T09:07:18.016Z,20
2019-01-23T09:08:15.761Z,20
2019-01-23T09:09:16.045Z,20
2019-01-23T09:10:15.705Z,20
2019-01-23T09:11:15.680Z,20
2019-01-23T09:12:16.832Z,20
2019-01-23T09:13:15.747Z,20
2019-01-23T09:14:15.289Z,20
2019-01-23T09:15:15.627Z,20
2019-01-23T09:16:15.949Z,20
2019-01-23T09:17:15.760Z,20
2019-01-23T09:18:15.616Z,20
2019-01-23T09:19:18.219Z,20
2019-01-23T09:20:15.651Z,20
2019-01-23T09:21:15.966Z,20
2019-01-23T09:22:15.335Z,20
2019-01-23T09:23:15.405Z,20
2019-01-23T09:24:15.819Z,20
2019-01-23T09:25:15.716Z,20
2019-01-23T09:26:16.209Z,20
2019-01-23T09:27:15.504Z,20
2019-01-23T09:28:15.267Z,20
2019-01-23T09:29:15.376Z,20
2019-01-23T09:30:16.346Z,20
2019-01-23T09:31:15.188Z,20
2019-01-23T09:32:15.368Z,20
2019-01-23T09:33:15.430Z,20
2019-01-23T09:34:15.894Z,20
2019-01-23T09:35:15.345Z,20
2019-01-23T09:36:15.783Z,20
2019-01-23T09:37:15.592Z,20
2019-01-23T09:38:15.543Z,20
2019-01-23T09:39:16.322Z,20
2019-01-23T09:40:15.424Z,20
2019-01-23T09:41:15.517Z,20
2019-01-23T09:42:16.016Z,20
2019-01-23T09:43:15.141Z,20
2019-01-23T09:44:15.329Z,20
2019-01-23T09:45:15.373Z,20
2019-01-23T09:46:15.473Z,20
2019-01-23T09:47:15.543Z,20
2019-01-23T09:48:15.240Z,20
2019-01-23T09:49:15.459Z,20
2019-01-23T09:50:16.355Z,20
2019-01-23T09:51:15.286Z,20
2019-01-23T09:52:16.714Z,20
2019-01-23T09:53:15.609Z,20.25
2019-01-23T09:54:15.269Z,20.25
2019-01-23T09:55:15.689Z,20.25
2019-01-23T09:56:16.230Z,20
2019-01-23T09:57:15.312Z,20.25
2019-01-23T09:58:22.267Z,20.25
2019-01-23T09:59:22.861Z,20.25
2019-01-23T10:00:22.451Z,20
2019-01-23T10:01:22.887Z,20
2019-01-23T10:02:24.172Z,20
2019-01-23T10:03:23.395Z,20
2019-01-23T10:04:22.725Z,20
2019-01-23T10:05:23.143Z,19.75
2019-01-23T10:06:22.626Z,19.75
2019-01-23T10:07:22.498Z,19.75
2019-01-23T10:08:22.792Z,19.75
2019-01-23T10:09:23.046Z,19.75
2019-01-23T10:10:23.007Z,19.75
2019-01-23T10:11:24.420Z,19.75
2019-01-23T10:12:23.741Z,19.5
2019-01-23T10:13:22.399Z,19.5
2019-01-23T10:14:22.874Z,19.5
2019-01-23T10:15:23.408Z,19.5
2019-01-23T10:16:22.739Z,19.5
2019-01-23T10:17:22.824Z,19.5
2019-01-23T10:18:22.332Z,19.5
2019-01-23T10:19:22.329Z,19.5
2019-01-23T10:20:22.616Z,19.5
2019-01-23T10:21:22.226Z,19.5
2019-01-23T10:22:22.463Z,19.5
2019-01-23T10:23:22.740Z,19.5
2019-01-23T10:25:23.102Z,19.5
2019-01-23T10:26:22.262Z,19.5
2019-01-23T10:27:22.705Z,19.5
2019-01-23T10:28:22.430Z,19.5
2019-01-23T10:29:22.607Z,19.5
2019-01-23T10:30:22.389Z,19.5
2019-01-23T10:31:22.416Z,19.5
2019-01-23T10:32:22.925Z,19.5
2019-01-23T10:33:22.329Z,19.5
2019-01-23T10:34:22.279Z,19.5
2019-01-23T10:35:22.641Z,19.5
2019-01-23T10:36:22.668Z,19.5
2019-01-23T10:37:22.345Z,19.5
2019-01-23T10:38:22.466Z,19.5
2019-01-23T10:39:22.666Z,19.5
2019-01-23T10:40:22.592Z,19.5
2019-01-23T10:41:22.779Z,19.5
2019-01-23T10:42:22.519Z,19.5
2019-01-23T10:43:22.440Z,19.5
2019-01-23T10:44:22.707Z,19.5
2019-01-23T10:45:22.517Z,19.5
2019-01-23T10:46:22.423Z,19.5
2019-01-23T10:47:22.673Z,19.5
2019-01-23T10:48:22.650Z,19.5
2019-01-23T10:49:24.310Z,19.5
2019-01-23T10:50:22.421Z,19.5
2019-01-23T10:51:22.668Z,19.5
2019-01-23T10:52:22.704Z,19.5
2019-01-23T10:53:22.856Z,19.5
2019-01-23T10:54:22.388Z,19.5
2019-01-23T10:55:22.573Z,19.5
2019-01-23T10:56:22.673Z,19.5
2019-01-23T10:57:23.320Z,19.5
2019-01-23T10:58:22.441Z,19.5
2019-01-23T10:59:22.630Z,19.5
2019-01-23T11:00:22.230Z,19.5
2019-01-23T11:01:22.466Z,19.5
2019-01-23T11:02:22.944Z,19.5
2019-01-23T11:03:24.153Z,19.5
2019-01-23T11:04:23.274Z,19.5
2019-01-23T11:05:22.850Z,19.5
2019-01-23T11:06:22.494Z,19.5
2019-01-23T11:07:22.379Z,19.5
2019-01-23T11:08:24.380Z,19.5
2019-01-23T11:09:23.344Z,19.5
2019-01-23T11:10:22.438Z,19.5
2019-01-23T11:11:22.800Z,19.5
2019-01-23T11:12:22.298Z,19.5
2019-01-23T11:13:22.326Z,19.5
2019-01-23T11:14:23.032Z,19.5
2019-01-23T11:15:22.649Z,19.5
2019-01-23T11:16:24.131Z,19.5
2019-01-23T11:17:22.916Z,19.5
2019-01-23T11:18:22.745Z,19.5
2019-01-23T11:19:22.759Z,19.5
2019-01-23T11:20:22.768Z,19.5
2019-01-23T11:21:22.673Z,19.5
2019-01-23T11:22:22.689Z,19.5
2019-01-23T11:23:22.251Z,19.5
2019-01-23T11:24:23.020Z,19.5
2019-01-23T11:25:22.462Z,19.5
2019-01-23T11:26:22.698Z,19.5
2019-01-23T11:27:24.331Z,19.5
2019-01-23T11:28:22.773Z,19.5
2019-01-23T11:29:22.654Z,19.5
2019-01-23T11:30:22.667Z,19.5
2019-01-23T11:31:22.214Z,19.5
2019-01-23T11:33:22.631Z,19.5
2019-01-23T11:34:22.333Z,19.5
2019-01-23T11:35:22.688Z,19.5
2019-01-23T11:36:22.329Z,19.5
2019-01-23T11:37:22.290Z,19.5
2019-01-23T11:38:22.368Z,19.5
2019-01-23T11:39:22.810Z,19.5
2019-01-23T11:40:22.919Z,19.5
2019-01-23T11:41:23.072Z,19.5
2019-01-23T11:42:22.362Z,19.5
2019-01-23T11:43:22.249Z,19.5
2019-01-23T11:44:23.546Z,19.5
2019-01-23T11:45:23.032Z,19.5
2019-01-23T11:46:22.844Z,19.5
2019-01-23T11:47:22.487Z,19.5
2019-01-23T11:48:22.548Z,19.5
2019-01-23T11:49:23.713Z,19.5
2019-01-23T11:50:23.357Z,19.5
2019-01-23T11:51:22.515Z,19.5
2019-01-23T11:52:23.009Z,19.5
2019-01-23T11:53:22.581Z,19.5
2019-01-23T11:54:22.336Z,19.5
2019-01-23T11:55:22.349Z,19.5
2019-01-23T11:56:22.400Z,19.5
2019-01-23T11:57:22.348Z,19.5
2019-01-23T11:58:22.529Z,19.5
2019-01-23T12:00:23.027Z,19.5
2019-01-23T12:01:27.994Z,19.5
2019-01-23T12:02:22.546Z,19.5
2019-01-23T12:03:22.226Z,19.5
2019-01-23T12:04:22.314Z,19.5
2019-01-23T12:05:23.216Z,19.5
2019-01-23T12:06:24.870Z,19.5
2019-01-23T12:07:22.631Z,19.5
2019-01-23T12:08:23.039Z,19.5
2019-01-23T12:09:23.055Z,19.5
2019-01-23T12:10:22.920Z,19.5
2019-01-23T12:11:22.648Z,19.5
2019-01-23T12:13:22.456Z,19.5
2019-01-23T12:14:22.695Z,19.5
2019-01-23T12:15:22.892Z,19.5
2019-01-23T12:16:22.900Z,19.5
2019-01-23T12:17:22.330Z,19.5
2019-01-23T12:18:22.797Z,19.5
2019-01-23T12:19:22.720Z,19.5
2019-01-23T12:20:22.250Z,19.5
2019-01-23T12:21:22.361Z,19.5
2019-01-23T12:22:22.498Z,19.5
2019-01-23T12:23:22.366Z,19.5
2019-01-23T12:24:22.608Z,19.5
2019-01-23T12:25:22.284Z,19.5
2019-01-23T12:26:22.206Z,19.5
2019-01-23T12:27:22.634Z,19.5
2019-01-23T12:28:22.761Z,19.5
2019-01-23T12:29:22.594Z,19.5
2019-01-23T12:30:22.316Z,19.5
2019-01-23T12:31:22.283Z,19.5
2019-01-23T12:32:22.750Z,19.5
2019-01-23T12:33:22.273Z,19.5
2019-01-23T12:34:22.267Z,19.5
2019-01-23T12:35:22.718Z,19.5
2019-01-23T12:36:22.725Z,19.5
2019-01-23T12:37:22.612Z,19.5
2019-01-23T12:38:22.785Z,19.5
2019-01-23T12:39:22.268Z,19.5
2019-01-23T12:40:22.228Z,19.5
2019-01-23T12:41:22.334Z,19.5
2019-01-23T12:42:22.788Z,19.5
2019-01-23T12:43:22.554Z,19.5
2019-01-23T12:44:22.863Z,19.5
2019-01-23T12:45:22.674Z,19.5
2019-01-23T12:46:22.443Z,19.5
2019-01-23T12:47:22.675Z,19.5
2019-01-23T12:48:22.348Z,19.5
2019-01-23T12:49:22.593Z,19.5
2019-01-23T12:50:22.398Z,19.5
2019-01-23T12:51:22.587Z,19.5
2019-01-23T12:52:22.409Z,19.5
2019-01-23T12:53:24.203Z,19.5
2019-01-23T12:54:22.615Z,19.5
2019-01-23T12:55:22.858Z,19.5
2019-01-23T12:56:22.413Z,19.5
2019-01-23T12:57:22.657Z,19.5
2019-01-23T12:58:22.563Z,19.5
2019-01-23T12:59:22.628Z,19.5
2019-01-23T13:00:22.775Z,19.5
2019-01-23T13:01:22.413Z,19.5
2019-01-23T13:02:22.288Z,19.5
2019-01-23T13:03:22.250Z,19.5
2019-01-23T13:04:22.925Z,19.75
2019-01-23T13:05:22.217Z,19.5
2019-01-23T13:06:23.429Z,19.5
2019-01-23T13:07:22.562Z,19.75
2019-01-23T13:08:22.691Z,19.5
2019-01-23T13:09:22.933Z,19.5
2019-01-23T13:10:22.750Z,19.75
2019-01-23T13:11:22.632Z,19.75
2019-01-23T13:12:22.234Z,19.75
2019-01-23T13:13:22.426Z,19.75
2019-01-23T13:14:23.142Z,19.75
2019-01-23T13:15:22.904Z,19.75
2019-01-23T13:16:22.313Z,19.75
2019-01-23T13:17:23.578Z,19.75
2019-01-23T13:18:22.700Z,19.75
2019-01-23T13:19:22.697Z,19.75
2019-01-23T13:20:22.469Z,19.75
2019-01-23T13:21:23.116Z,19.75
2019-01-23T13:22:23.761Z,19.75
2019-01-23T13:23:22.239Z,19.75
2019-01-23T13:24:22.726Z,19.75
2019-01-23T13:25:23.175Z,19.75
2019-01-23T13:26:22.653Z,19.75
2019-01-23T13:27:22.963Z,19.75
2019-01-23T13:28:23.838Z,19.75
2019-01-23T13:29:23.348Z,19.75
2019-01-23T13:30:22.624Z,19.75